sensor_id;sensor_type;location;lat;lon;timestamp;pressure;altitude;pressure_sealevel;temperature;humidity
52469;BME280;38381;53.688;10.776;2023-03-26T00:03:01;99753.50;;;7.01;95.44
52469;BME280;38381;53.688;10.776;2023-03-26T00:08:02;99756.09;;;7.02;95.90
52469;BME280;38381;53.688;10.776;2023-03-26T00:13:07;99756.06;;;7.01;96.05
52469;BME280;38381;53.688;10.776;2023-03-26T00:18:07;99774.09;;;6.96;96.12
52469;BME280;38381;53.688;10.776;2023-03-26T00:23:15;99784.47;;;7.05;95.82
52469;BME280;38381;53.688;10.776;2023-03-26T00:28:17;99790.47;;;7.03;95.39
52469;BME280;38381;53.688;10.776;2023-03-26T00:33:20;99796.50;;;7.11;94.30
52469;BME280;38381;53.688;10.776;2023-03-26T00:38:21;99797.31;;;7.01;94.65
52469;BME280;38381;53.688;10.776;2023-03-26T00:43:23;99802.50;;;6.99;94.68
52469;BME280;38381;53.688;10.776;2023-03-26T00:48:25;99810.22;;;7.01;94.29
52469;BME280;38381;53.688;10.776;2023-03-26T00:53:28;99811.88;;;6.93;94.60
52469;BME280;38381;53.688;10.776;2023-03-26T00:58:29;99809.31;;;6.94;94.86
52469;BME280;38381;53.688;10.776;2023-03-26T01:03:32;99807.63;;;7.01;95.09
52469;BME280;38381;53.688;10.776;2023-03-26T01:08:40;99816.22;;;7.03;95.01
52469;BME280;38381;53.688;10.776;2023-03-26T01:13:47;99822.25;;;6.97;95.43
52469;BME280;38381;53.688;10.776;2023-03-26T01:18:48;99831.69;;;6.98;95.31
52469;BME280;38381;53.688;10.776;2023-03-26T01:24:03;99830.81;;;6.96;95.39
52469;BME280;38381;53.688;10.776;2023-03-26T01:29:04;99838.53;;;6.92;95.39
52469;BME280;38381;53.688;10.776;2023-03-26T01:34:24;99836.84;;;7.03;95.00
52469;BME280;38381;53.688;10.776;2023-03-26T01:39:46;99836.88;;;7.06;95.23
52469;BME280;38381;53.688;10.776;2023-03-26T01:44:56;99838.50;;;6.89;96.01
52469;BME280;38381;53.688;10.776;2023-03-26T01:49:58;99843.69;;;6.96;95.43
52469;BME280;38381;53.688;10.776;2023-03-26T01:54:59;99856.63;;;6.99;94.96
52469;BME280;38381;53.688;10.776;2023-03-26T02:00:21;99842.75;;;6.83;94.75
52469;BME280;38381;53.688;10.776;2023-03-26T02:05:31;99855.66;;;6.87;94.65
52469;BME280;38381;53.688;10.776;2023-03-26T02:10:38;99865.19;;;6.97;93.60
52469;BME280;38381;53.688;10.776;2023-03-26T02:15:53;99852.25;;;6.91;94.62
52469;BME280;38381;53.688;10.776;2023-03-26T02:20:54;99848.78;;;6.89;93.67
52469;BME280;38381;53.688;10.776;2023-03-26T02:25:54;99853.97;;;6.90;94.32
52469;BME280;38381;53.688;10.776;2023-03-26T02:30:55;99862.56;;;6.89;94.67
52469;BME280;38381;53.688;10.776;2023-03-26T02:35:57;99872.69;;;6.64;94.54
52469;BME280;38381;53.688;10.776;2023-03-26T02:41:04;99872.44;;;6.34;93.59
52469;BME280;38381;53.688;10.776;2023-03-26T02:46:05;99888.59;;;6.20;92.87
52469;BME280;38381;53.688;10.776;2023-03-26T02:51:06;99887.75;;;6.20;92.75
52469;BME280;38381;53.688;10.776;2023-03-26T02:56:08;99890.22;;;6.12;92.33
52469;BME280;38381;53.688;10.776;2023-03-26T03:01:08;99892.66;;;5.98;91.42
52469;BME280;38381;53.688;10.776;2023-03-26T03:06:09;99898.81;;;6.13;90.09
52469;BME280;38381;53.688;10.776;2023-03-26T03:11:12;99895.19;;;5.95;89.59
52469;BME280;38381;53.688;10.776;2023-03-26T03:16:13;99888.34;;;5.96;89.17
52469;BME280;38381;53.688;10.776;2023-03-26T03:21:13;99898.69;;;6.02;88.80
52469;BME280;38381;53.688;10.776;2023-03-26T03:26:19;99897.78;;;5.95;88.86
52469;BME280;38381;53.688;10.776;2023-03-26T03:31:26;99896.84;;;5.92;89.10
52469;BME280;38381;53.688;10.776;2023-03-26T03:36:27;99901.19;;;5.96;88.65
52469;BME280;38381;53.688;10.776;2023-03-26T03:41:29;99897.69;;;5.91;88.99
52469;BME280;38381;53.688;10.776;2023-03-26T03:46:29;99900.19;;;5.86;88.99
52469;BME280;38381;53.688;10.776;2023-03-26T03:51:30;99903.56;;;5.82;88.71
52469;BME280;38381;53.688;10.776;2023-03-26T03:56:30;99914.69;;;5.79;89.19
52469;BME280;38381;53.688;10.776;2023-03-26T04:01:31;99919.00;;;5.79;90.44
52469;BME280;38381;53.688;10.776;2023-03-26T04:06:31;99918.88;;;5.70;88.97
52469;BME280;38381;53.688;10.776;2023-03-26T04:11:31;99914.50;;;5.62;89.82
52469;BME280;38381;53.688;10.776;2023-03-26T04:16:32;99911.09;;;5.65;88.81
52469;BME280;38381;53.688;10.776;2023-03-26T04:21:32;99915.16;;;5.48;89.79
52469;BME280;38381;53.688;10.776;2023-03-26T04:26:37;99908.41;;;5.57;89.66
52469;BME280;38381;53.688;10.776;2023-03-26T04:31:37;99908.34;;;5.50;89.97
52469;BME280;38381;53.688;10.776;2023-03-26T04:36:38;99908.25;;;5.43;89.98
52469;BME280;38381;53.688;10.776;2023-03-26T04:41:41;99917.81;;;5.55;89.85
52469;BME280;38381;53.688;10.776;2023-03-26T04:46:42;99901.53;;;5.55;89.20
52469;BME280;38381;53.688;10.776;2023-03-26T04:51:42;99903.97;;;5.44;90.06
52469;BME280;38381;53.688;10.776;2023-03-26T05:01:45;99901.44;;;5.46;89.96
52469;BME280;38381;53.688;10.776;2023-03-26T05:06:46;99894.53;;;5.41;90.39
52469;BME280;38381;53.688;10.776;2023-03-26T05:11:46;99903.16;;;5.48;90.17
52469;BME280;38381;53.688;10.776;2023-03-26T05:16:48;99902.41;;;5.57;89.49
52469;BME280;38381;53.688;10.776;2023-03-26T05:21:49;99904.91;;;5.51;90.58
52469;BME280;38381;53.688;10.776;2023-03-26T05:26:50;99904.00;;;5.46;90.53
52469;BME280;38381;53.688;10.776;2023-03-26T05:31:50;99896.31;;;5.49;90.50
52469;BME280;38381;53.688;10.776;2023-03-26T05:36:51;99913.47;;;5.48;90.84
52469;BME280;38381;53.688;10.776;2023-03-26T05:41:52;99918.66;;;5.53;91.26
52469;BME280;38381;53.688;10.776;2023-03-26T05:46:52;99911.72;;;5.47;92.11
52469;BME280;38381;53.688;10.776;2023-03-26T05:51:53;99920.31;;;5.48;92.20
52469;BME280;38381;53.688;10.776;2023-03-26T05:56:54;99920.31;;;5.49;92.72
52469;BME280;38381;53.688;10.776;2023-03-26T06:01:56;99921.13;;;5.45;91.83
52469;BME280;38381;53.688;10.776;2023-03-26T06:06:56;99919.38;;;5.42;91.59
52469;BME280;38381;53.688;10.776;2023-03-26T06:11:57;99925.44;;;5.46;91.60
52469;BME280;38381;53.688;10.776;2023-03-26T06:16:57;99936.50;;;5.42;90.11
52469;BME280;38381;53.688;10.776;2023-03-26T06:21:57;99942.50;;;5.39;90.89
52469;BME280;38381;53.688;10.776;2023-03-26T06:26:58;99945.09;;;5.42;89.61
52469;BME280;38381;53.688;10.776;2023-03-26T06:31:58;99950.22;;;5.42;89.39
52469;BME280;38381;53.688;10.776;2023-03-26T06:36:59;99951.19;;;5.51;87.79
52469;BME280;38381;53.688;10.776;2023-03-26T06:41:59;99958.88;;;5.48;87.62
52469;BME280;38381;53.688;10.776;2023-03-26T06:46:59;99961.53;;;5.55;87.57
52469;BME280;38381;53.688;10.776;2023-03-26T06:52:00;99958.97;;;5.54;86.06
52469;BME280;38381;53.688;10.776;2023-03-26T06:57:02;99969.25;;;5.54;86.63
52469;BME280;38381;53.688;10.776;2023-03-26T07:02:03;99977.66;;;5.42;86.40
52469;BME280;38381;53.688;10.776;2023-03-26T07:07:03;99972.53;;;5.43;85.09
52469;BME280;38381;53.688;10.776;2023-03-26T07:12:04;99976.88;;;5.48;83.07
52469;BME280;38381;53.688;10.776;2023-03-26T07:17:05;99981.16;;;5.46;81.36
52469;BME280;38381;53.688;10.776;2023-03-26T07:22:05;99977.72;;;5.47;81.41
52469;BME280;38381;53.688;10.776;2023-03-26T07:37:42;99965.59;;;5.38;80.18
52469;BME280;38381;53.688;10.776;2023-03-26T07:48:04;99982.94;;;5.53;76.84
52469;BME280;38381;53.688;10.776;2023-03-26T07:53:09;99984.44;;;5.37;76.43
52469;BME280;38381;53.688;10.776;2023-03-26T07:58:34;99973.50;;;5.50;76.02
52469;BME280;38381;53.688;10.776;2023-03-26T08:08:59;99977.81;;;5.53;72.69
52469;BME280;38381;53.688;10.776;2023-03-26T08:19:33;99982.00;;;5.46;71.63
52469;BME280;38381;53.688;10.776;2023-03-26T08:30:13;99988.28;;;5.67;72.36
52469;BME280;38381;53.688;10.776;2023-03-26T08:35:16;99982.47;;;5.80;69.21
52469;BME280;38381;53.688;10.776;2023-03-26T08:51:35;99987.66;;;6.55;67.62
52469;BME280;38381;53.688;10.776;2023-03-26T09:02:41;99981.31;;;6.22;68.92
52469;BME280;38381;53.688;10.776;2023-03-26T09:24:12;99990.56;;;6.90;67.39
52469;BME280;38381;53.688;10.776;2023-03-26T09:40:17;99972.63;;;7.02;64.37
52469;BME280;38381;53.688;10.776;2023-03-26T09:51:16;99984.94;;;7.37;65.74
52469;BME280;38381;53.688;10.776;2023-03-26T10:02:12;99968.91;;;7.92;63.28
52469;BME280;38381;53.688;10.776;2023-03-26T10:18:19;99983.63;;;8.18;62.92
52469;BME280;38381;53.688;10.776;2023-03-26T10:55:21;99994.09;;;8.50;57.58
52469;BME280;38381;53.688;10.776;2023-03-26T11:00:27;99989.72;;;8.34;58.96
52469;BME280;38381;53.688;10.776;2023-03-26T11:11:04;99993.25;;;8.45;57.27
52469;BME280;38381;53.688;10.776;2023-03-26T11:16:23;99984.66;;;8.66;58.21
52469;BME280;38381;53.688;10.776;2023-03-26T11:21:45;99989.00;;;8.87;56.78
52469;BME280;38381;53.688;10.776;2023-03-26T11:26:55;99989.03;;;9.15;55.99
52469;BME280;38381;53.688;10.776;2023-03-26T11:37:17;99981.25;;;9.19;59.27
52469;BME280;38381;53.688;10.776;2023-03-26T11:42:21;99978.63;;;9.56;54.84
52469;BME280;38381;53.688;10.776;2023-03-26T11:47:29;99978.59;;;9.61;55.72
52469;BME280;38381;53.688;10.776;2023-03-26T11:52:31;99973.41;;;9.69;56.18
52469;BME280;38381;53.688;10.776;2023-03-26T11:57:33;99979.41;;;9.80;56.60
52469;BME280;38381;53.688;10.776;2023-03-26T12:02:39;99982.09;;;9.32;55.06
52469;BME280;38381;53.688;10.776;2023-03-26T12:07:54;99982.09;;;9.35;57.24
52469;BME280;38381;53.688;10.776;2023-03-26T12:12:58;99974.25;;;9.67;56.52
52469;BME280;38381;53.688;10.776;2023-03-26T12:18:21;99969.06;;;9.78;55.39
52469;BME280;38381;53.688;10.776;2023-03-26T12:23:32;99973.16;;;10.28;52.06
52469;BME280;38381;53.688;10.776;2023-03-26T12:28:33;99971.56;;;10.09;53.60
52469;BME280;38381;53.688;10.776;2023-03-26T12:33:34;99969.78;;;10.17;53.77
52469;BME280;38381;53.688;10.776;2023-03-26T12:38:34;99965.56;;;9.84;53.04
52469;BME280;38381;53.688;10.776;2023-03-26T12:43:42;99957.72;;;10.08;52.89
52469;BME280;38381;53.688;10.776;2023-03-26T12:48:43;99959.47;;;10.05;55.39
52469;BME280;38381;53.688;10.776;2023-03-26T12:54:07;99961.19;;;10.07;56.68
52469;BME280;38381;53.688;10.776;2023-03-26T13:04:36;99968.91;;;10.20;53.46
52469;BME280;38381;53.688;10.776;2023-03-26T13:20:46;99952.28;;;10.59;52.98
52469;BME280;38381;53.688;10.776;2023-03-26T13:36:20;99952.06;;;10.88;52.31
52469;BME280;38381;53.688;10.776;2023-03-26T13:41:41;99944.53;;;10.56;52.98
52469;BME280;38381;53.688;10.776;2023-03-26T13:46:52;99948.91;;;10.45;52.71
52469;BME280;38381;53.688;10.776;2023-03-26T14:02:08;99940.22;;;10.55;51.60
52469;BME280;38381;53.688;10.776;2023-03-26T14:07:24;99939.47;;;10.36;53.20
52469;BME280;38381;53.688;10.776;2023-03-26T14:12:51;99942.91;;;10.37;53.19
52469;BME280;38381;53.688;10.776;2023-03-26T14:18:06;99941.19;;;10.40;52.14
52469;BME280;38381;53.688;10.776;2023-03-26T14:34:22;99940.94;;;10.77;53.63
52469;BME280;38381;53.688;10.776;2023-03-26T15:01:16;99946.31;;;10.45;55.02
52469;BME280;38381;53.688;10.776;2023-03-26T15:11:46;99949.84;;;10.38;54.69
52469;BME280;38381;53.688;10.776;2023-03-26T15:27:36;99958.47;;;10.29;53.68
52469;BME280;38381;53.688;10.776;2023-03-26T15:38:35;99957.59;;;10.44;55.16
52469;BME280;38381;53.688;10.776;2023-03-26T15:54:32;99971.59;;;9.97;54.77
52469;BME280;38381;53.688;10.776;2023-03-26T16:10:24;99973.38;;;9.73;55.34
52469;BME280;38381;53.688;10.776;2023-03-26T16:15:54;99975.97;;;9.75;55.32
52469;BME280;38381;53.688;10.776;2023-03-26T16:42:44;100007.97;;;8.89;60.57
52469;BME280;38381;53.688;10.776;2023-03-26T16:47:59;100019.13;;;8.63;61.06
52469;BME280;38381;53.688;10.776;2023-03-26T16:58:42;100023.31;;;8.34;62.05
52469;BME280;38381;53.688;10.776;2023-03-26T17:03:59;100036.06;;;8.01;62.29
52469;BME280;38381;53.688;10.776;2023-03-26T17:20:25;100064.28;;;7.69;62.99
52469;BME280;38381;53.688;10.776;2023-03-26T17:31:19;100074.28;;;7.26;63.41
52469;BME280;38381;53.688;10.776;2023-03-26T17:36:39;100087.84;;;7.07;63.41
52469;BME280;38381;53.688;10.776;2023-03-26T17:52:37;100108.13;;;6.76;63.32
52469;BME280;38381;53.688;10.776;2023-03-26T17:57:43;100111.56;;;6.76;63.96
52469;BME280;38381;53.688;10.776;2023-03-26T18:02:48;100114.16;;;6.78;64.98
52469;BME280;38381;53.688;10.776;2023-03-26T18:23:38;100150.03;;;6.59;65.87
52469;BME280;38381;53.688;10.776;2023-03-26T18:28:48;100154.25;;;6.54;65.62
52469;BME280;38381;53.688;10.776;2023-03-26T18:33:54;100152.44;;;6.47;65.02
52469;BME280;38381;53.688;10.776;2023-03-26T18:38:57;100167.97;;;6.53;66.09
52469;BME280;38381;53.688;10.776;2023-03-26T18:44:03;100164.50;;;6.48;65.96
52469;BME280;38381;53.688;10.776;2023-03-26T18:49:10;100165.38;;;6.52;65.82
52469;BME280;38381;53.688;10.776;2023-03-26T18:54:17;100174.78;;;6.48;66.31
52469;BME280;38381;53.688;10.776;2023-03-26T18:59:30;100176.31;;;6.34;66.04
52469;BME280;38381;53.688;10.776;2023-03-26T19:04:34;100178.72;;;6.21;66.48
52469;BME280;38381;53.688;10.776;2023-03-26T19:09:37;100178.84;;;6.32;66.81
52469;BME280;38381;53.688;10.776;2023-03-26T19:15:14;100183.97;;;6.31;67.45
52469;BME280;38381;53.688;10.776;2023-03-26T19:20:19;100184.75;;;6.23;66.51
52469;BME280;38381;53.688;10.776;2023-03-26T19:25:31;100189.72;;;6.11;66.06
52469;BME280;38381;53.688;10.776;2023-03-26T19:30:34;100194.06;;;6.15;66.39
52469;BME280;38381;53.688;10.776;2023-03-26T19:35:44;100205.25;;;6.19;68.28
52469;BME280;38381;53.688;10.776;2023-03-26T19:40:45;100208.66;;;6.16;68.09
52469;BME280;38381;53.688;10.776;2023-03-26T19:45:48;100213.88;;;6.19;67.84
52469;BME280;38381;53.688;10.776;2023-03-26T19:50:59;100212.75;;;6.03;68.30
52469;BME280;38381;53.688;10.776;2023-03-26T19:56:10;100214.38;;;5.97;68.52
52469;BME280;38381;53.688;10.776;2023-03-26T20:01:21;100221.06;;;5.90;67.62
52469;BME280;38381;53.688;10.776;2023-03-26T20:06:23;100214.09;;;5.83;67.18
52469;BME280;38381;53.688;10.776;2023-03-26T20:11:33;100226.91;;;5.78;65.90
52469;BME280;38381;53.688;10.776;2023-03-26T20:16:35;100225.75;;;5.62;65.82
52469;BME280;38381;53.688;10.776;2023-03-26T20:21:36;100227.34;;;5.57;64.18
52469;BME280;38381;53.688;10.776;2023-03-26T20:26:39;100239.09;;;5.41;65.56
52469;BME280;38381;53.688;10.776;2023-03-26T20:31:40;100244.56;;;5.16;65.44
52469;BME280;38381;53.688;10.776;2023-03-26T20:36:40;100250.44;;;5.09;64.94
52469;BME280;38381;53.688;10.776;2023-03-26T20:41:44;100253.72;;;5.01;65.12
52469;BME280;38381;53.688;10.776;2023-03-26T20:46:46;100256.22;;;4.98;64.95
52469;BME280;38381;53.688;10.776;2023-03-26T20:51:47;100263.69;;;4.86;65.41
52469;BME280;38381;53.688;10.776;2023-03-26T20:56:48;100277.97;;;4.75;66.05
52469;BME280;38381;53.688;10.776;2023-03-26T21:01:49;100285.53;;;4.69;65.33
52469;BME280;38381;53.688;10.776;2023-03-26T21:06:50;100285.34;;;4.59;66.09
52469;BME280;38381;53.688;10.776;2023-03-26T21:16:51;100290.97;;;4.43;65.42
52469;BME280;38381;53.688;10.776;2023-03-26T21:22:53;100290.88;;;4.40;65.27
52469;BME280;38381;53.688;10.776;2023-03-26T21:27:50;100294.06;;;4.30;65.56
52469;BME280;38381;53.688;10.776;2023-03-26T21:32:54;100301.66;;;4.25;65.69
52469;BME280;38381;53.688;10.776;2023-03-26T21:37:55;100311.81;;;4.20;64.76
52469;BME280;38381;53.688;10.776;2023-03-26T21:42:56;100324.41;;;4.11;65.04
52469;BME280;38381;53.688;10.776;2023-03-26T21:47:57;100321.50;;;3.99;65.00
52469;BME280;38381;53.688;10.776;2023-03-26T21:52:59;100330.38;;;3.78;66.46
52469;BME280;38381;53.688;10.776;2023-03-26T21:58:09;100341.44;;;3.76;66.96
52469;BME280;38381;53.688;10.776;2023-03-26T22:03:26;100356.13;;;3.81;67.17
52469;BME280;38381;53.688;10.776;2023-03-26T22:08:36;100364.56;;;3.77;66.87
52469;BME280;38381;53.688;10.776;2023-03-26T22:13:37;100362.53;;;3.66;67.85
52469;BME280;38381;53.688;10.776;2023-03-26T22:18:38;100377.78;;;3.61;67.68
52469;BME280;38381;53.688;10.776;2023-03-26T22:23:58;100388.69;;;3.54;68.58
52469;BME280;38381;53.688;10.776;2023-03-26T22:29:04;100398.41;;;3.35;69.32
52469;BME280;38381;53.688;10.776;2023-03-26T22:34:04;100405.84;;;3.28;69.30
52469;BME280;38381;53.688;10.776;2023-03-26T22:39:05;100415.28;;;3.29;68.79
52469;BME280;38381;53.688;10.776;2023-03-26T22:44:06;100418.81;;;3.32;68.79
52469;BME280;38381;53.688;10.776;2023-03-26T22:49:06;100425.94;;;3.14;68.66
52469;BME280;38381;53.688;10.776;2023-03-26T22:54:07;100432.53;;;3.06;68.98
52469;BME280;38381;53.688;10.776;2023-03-26T22:59:07;100441.66;;;2.97;68.93
52469;BME280;38381;53.688;10.776;2023-03-26T23:04:08;100445.88;;;2.97;68.77
52469;BME280;38381;53.688;10.776;2023-03-26T23:09:09;100453.97;;;2.82;69.08
52469;BME280;38381;53.688;10.776;2023-03-26T23:14:09;100461.38;;;2.74;70.01
52469;BME280;38381;53.688;10.776;2023-03-26T23:19:10;100464.78;;;2.73;70.43
52469;BME280;38381;53.688;10.776;2023-03-26T23:24:20;100477.06;;;2.84;69.44
52469;BME280;38381;53.688;10.776;2023-03-26T23:29:20;100486.16;;;3.01;68.74
52469;BME280;38381;53.688;10.776;2023-03-26T23:34:21;100489.22;;;2.91;68.45
52469;BME280;38381;53.688;10.776;2023-03-26T23:39:22;100497.59;;;2.85;68.15
52469;BME280;38381;53.688;10.776;2023-03-26T23:44:25;100511.06;;;2.79;69.37
52469;BME280;38381;53.688;10.776;2023-03-26T23:49:28;100516.34;;;2.84;68.93
52469;BME280;38381;53.688;10.776;2023-03-26T23:59:46;100525.53;;;2.53;69.06
